Beaumont, California
Current Conditions -  °F | °C
As of 4:58 PM on Tuesday 27 Jan 2015 (Local Time) from KRIV Reporting Station
Scattered Clouds Scattered Clouds  
Wind Chill: 64°   Ceiling: Unl
Heat Index: 64°   Visibility: 10mi
Dew Point: 52°   Wind: 7mph
Humidity: 67%   Direction: 300°WNW
Pressure: 30.15"   Gusts: NA
Location:  33.93°N, 116.97°W
Report Text: KRIV 280058Z AUTO 30006KT 10SM SCT055 18/11 A3015 RMK AO2 SLP206 T01750112
Loading
Personal Weather Stations






























Interactive Weather Map New forecast layout! Learn more

10-Day Weather Forecast

Advertisements
Track Severe Weather on mobile